Kedves Pilóták, Oktatók, Növendékek!

Az alábbi menüpontban szeretnénk összefoglalni néhány fontos és hasznos információt, linket, amely segíthet a repülések megtervezésében.

Ha bármilyen javaslatod van a tartalommal kapcsolatban, kérlek Ez az e-mail-cím a szpemrobotok elleni védelem alatt áll. Megtekintéséhez engedélyeznie kell a JavaScript használatát.meg nekünk.

 

Jó leszállást!

Repüléssel kapcsolatos hírek

2021. augusztus 02.

Felhőkép 

Felhőkép

Széltérkép

Széltérkép

Győr-Pér Repülőtér

Élő webkamera kép

 Nagyobb kép

Győr-Pér Repülőtér

[Source: ADDS]
METAR
LHPR 012345Z AUTO 28007KT CAVOK 15/14 Q1010 =
LHPR 011715Z 0118/0203 29010KT 9999 SCT020 BKN040 PROB30 TEMPO 0118/0203 8000 SHRA SCT010 BKN020
TAF
LHPR 011715Z 0118/0203 29010KT 9999 SCT020 BKN040 PROB30 TEMPO 0118/0203 8000 SHRA SCT010 BKN020 =
SR / SS: 03:27 / 18:22 UTC (Napkelte / Napnyugta 2021-08-02)

Kapcsolat

Telephely:     9099 Pér, Repülõtér

Klubhelyiség: 9021 Gyõr, Városház tér 3.

E-mail: info@aeroclub-gyor.hu

Telefon: 06-20-777-9106

Adószám: 19113832-2-08

JSN Metro template designed by JoomlaShine.com